LETO/TOJ METAR and TAF weather

Enter ICAO airport designator
Station Type Date Time Source
LETO METAR 2020/01/18 13:00 UTC NOAA

LETO 181300Z 23005KT 7000 PRFG -DZ FEW009 SCT016 OVC022 07/07 Q1026 NOSIG


Station Type Date Time Source
LETO Decoded METAR 2020/01/18 13:00 UTC NOAA

Madrid / Torrejon, Spain (LETO) 40-29N 003-27W 611M
Jan 18, 2020 - 08:00 AM EST / 2020.01.18 1300 UTC
Wind: from the SW (230 degrees) at 6 MPH (5 KT):0
Visibility: 4 mile(s):0
Sky conditions: overcast
Weather: partial fog; light drizzle
Temperature: 44 F (7 C)
Dew Point: 44 F (7 C)
Relative Humidity: 100%
Pressure (altimeter): 30.30 in. Hg (1026 hPa)
ob: LETO 181300Z 23005KT 7000 PRFG -DZ FEW009 SCT016 OVC022 07/07 Q1026 NOSIG
cycle: 13

Station Type Date Time Source
LETO TAF 2020/01/18 12:30 UTC NOAA

TAF LETO 181100Z 1812/1912 22008KT 9999 BKN030 BKN050 TX10/1815Z TN01/1906Z
TEMPO 1812/1822 22012G22KT PROB40
TEMPO 1812/1818 BKN008
TEMPO 1818/1823 3000 RA BR BKN008 PROB40
TEMPO 1818/1823 1000 BCFG BKN004
TEMPO 1819/1824 28012KT
BECMG 1823/1824 01013KT FEW045
BECMG 1909/1910 02018KT
TEMPO 1911/1912 02018G34KT

Example: see airport list